Time;durP1;ratioP1;P1;durP2;ratioP2;P2;SDS_P1;SDS_P2;PMS_P1;PMS_P2;Temp;Humidity;BMP_temperature;BMP_pressure;BME280_temperature;BME280_humidity;BME280_pressure;Samples;Min_cycle;Max_cycle;Signal;HPM_P1;HPM_P2
2022/11/19 00:00:44;;;;;;;;;8.67;6.33;;;;;10.53;65.32;100626.63;5098988;27;47126;-51
2022/11/19 00:03:14;;;;;;;;;9.00;6.33;;;;;10.54;65.60;100625.66;5099283;27;45406;-46
2022/11/19 00:05:40;;;;;;;;;9.00;7.00;;;;;10.56;65.52;100633.47;5098645;27;45371;-53
2022/11/19 00:08:06;;;;;;;;;8.67;8.33;;;;;10.45;65.36;100614.09;5099345;27;45362;-51
2022/11/19 00:10:38;;;;;;;;;9.00;7.00;;;;;10.53;65.33;100631.09;5098712;27;46918;-48
2022/11/19 00:13:06;;;;;;;;;8.00;6.33;;;;;10.53;65.43;100623.94;5097576;27;45278;-49
2022/11/19 00:15:35;;;;;;;;;5.33;5.33;;;;;10.51;65.32;100627.75;5098922;27;45480;-50
2022/11/19 00:18:02;;;;;;;;;3.67;3.67;;;;;10.51;65.33;100627.75;5099172;27;45259;-49
2022/11/19 00:20:28;;;;;;;;;7.00;5.67;;;;;10.50;65.54;100626.94;5098783;27;45393;-48
2022/11/19 00:22:56;;;;;;;;;5.00;5.00;;;;;10.51;65.68;100633.09;5098859;27;45326;-48
2022/11/19 00:25:22;;;;;;;;;9.00;6.00;;;;;10.49;65.47;100628.75;5099048;27;45576;-50
2022/11/19 00:27:48;;;;;;;;;5.33;5.33;;;;;10.48;65.56;100618.25;5098235;27;45567;-47
2022/11/19 00:30:14;;;;;;;;;5.33;5.33;;;;;10.47;65.41;100611.25;5098607;27;46183;-49
2022/11/19 00:32:39;;;;;;;;;10.00;5.00;;;;;10.46;65.53;100615.75;5098612;27;45270;-49
2022/11/19 00:35:05;;;;;;;;;3.00;3.00;;;;;10.44;65.80;100614.22;5098829;27;45397;-49
2022/11/19 00:37:31;;;;;;;;;6.67;5.00;;;;;10.33;65.48;100604.63;5098909;27;45596;-51
2022/11/19 00:39:56;;;;;;;;;5.67;5.67;;;;;10.40;65.71;100612.84;5098351;27;45405;-51
2022/11/19 00:42:22;;;;;;;;;2.67;2.67;;;;;10.39;65.49;100617.31;5098618;27;45241;-50
2022/11/19 00:44:47;;;;;;;;;5.00;2.00;;;;;10.40;65.66;100620.81;5098375;27;45475;-50
2022/11/19 00:47:13;;;;;;;;;3.00;3.00;;;;;10.40;65.79;100618.16;5098680;27;45394;-51
2022/11/19 00:49:38;;;;;;;;;3.67;1.33;;;;;10.38;65.89;100614.81;5098270;27;46130;-51
2022/11/19 00:52:03;;;;;;;;;3.33;2.00;;;;;10.32;65.60;100618.06;5098377;27;45409;-48
2022/11/19 00:54:29;;;;;;;;;2.00;2.00;;;;;10.34;66.01;100621.41;5097864;27;45330;-50
2022/11/19 00:56:54;;;;;;;;;2.33;2.33;;;;;10.31;65.90;100627.84;5098354;27;45274;-50
2022/11/19 00:59:19;;;;;;;;;5.67;3.00;;;;;10.31;66.08;100616.41;5098025;27;45991;-49
2022/11/19 01:01:45;;;;;;;;;6.67;3.67;;;;;10.28;66.09;100617.53;5098046;27;45210;-51
2022/11/19 01:04:10;;;;;;;;;7.67;3.00;;;;;10.24;66.17;100621.44;5098174;27;45399;-50
2022/11/19 01:06:36;;;;;;;;;5.67;5.00;;;;;10.19;66.59;100613.88;5098475;27;45335;-52
2022/11/19 01:09:02;;;;;;;;;5.00;2.00;;;;;10.22;66.77;100626.88;5097837;27;46241;-52
2022/11/19 01:11:30;;;;;;;;;3.00;3.00;;;;;10.20;66.47;100626.22;5097940;27;45473;-47
2022/11/19 01:13:57;;;;;;;;;6.67;2.67;;;;;10.18;66.62;100630.81;5098238;27;45467;-54
2022/11/19 01:16:35;;;;;;;;;9.00;6.00;;;;;10.16;66.86;100630.16;5098215;27;45231;-49
2022/11/19 01:19:00;;;;;;;;;4.33;4.33;;;;;10.15;66.98;100628.47;5097771;27;47097;-49
2022/11/19 01:21:30;;;;;;;;;3.00;3.00;;;;;10.15;66.93;100638.25;5096645;27;45387;-51
2022/11/19 01:23:56;;;;;;;;;5.00;5.00;;;;;10.17;67.02;100641.63;5097770;27;45432;-49
2022/11/19 01:26:25;;;;;;;;;6.00;3.67;;;;;10.17;66.83;100639.78;5097887;27;45509;-49
2022/11/19 01:28:50;;;;;;;;;2.00;1.67;;;;;10.19;67.20;100639.63;5097623;27;46185;-51
2022/11/19 01:31:21;;;;;;;;;5.00;5.00;;;;;10.20;66.98;100647.47;5097580;27;45326;-48
2022/11/19 01:33:47;;;;;;;;;5.67;4.33;;;;;10.22;66.94;100649.97;5097670;27;45495;-51
2022/11/19 01:36:21;;;;;;;;;5.00;5.00;;;;;10.22;67.02;100650.81;5097875;27;45361;-48
2022/11/19 01:38:50;;;;;;;;;5.33;3.00;;;;;10.21;67.10;100645.66;5097382;27;45293;-52
2022/11/19 01:41:17;;;;;;;;;7.33;5.33;;;;;10.20;66.89;100646.66;5097422;27;45377;-52
2022/11/19 01:43:48;;;;;;;;;7.00;5.00;;;;;10.19;67.11;100663.56;5097551;27;45350;-50
2022/11/19 01:46:16;;;;;;;;;12.33;5.67;;;;;10.18;67.20;100662.72;5097189;27;45389;-49
2022/11/19 01:48:58;;;;;;;;;8.67;6.67;;;;;10.15;67.23;100660.34;5097310;27;47358;-52
2022/11/19 01:51:57;;;;;;;;;6.00;6.00;;;;;10.14;67.06;100652.53;5097570;27;45336;-49
2022/11/19 01:54:37;;;;;;;;;4.33;4.33;;;;;10.11;67.01;100658.13;5097546;27;45435;-48
2022/11/19 01:57:07;;;;;;;;;8.00;4.33;;;;;10.07;67.37;100659.41;5097416;27;45177;-52
2022/11/19 01:59:32;;;;;;;;;6.33;5.00;;;;;10.03;67.36;100664.19;5097275;27;45544;-50
2022/11/19 02:01:58;;;;;;;;;5.00;2.67;;;;;10.02;67.11;100651.03;5097168;27;45329;-48
2022/11/19 02:04:25;;;;;;;;;3.67;3.67;;;;;9.98;67.33;100653.16;5097522;27;45304;-49
2022/11/19 02:06:52;;;;;;;;;9.00;7.00;;;;;9.96;67.51;100661.28;5098775;27;45524;-50
2022/11/19 02:09:17;;;;;;;;;4.33;4.33;;;;;9.95;67.47;100664.09;5100680;27;47110;-53
2022/11/19 02:12:02;;;;;;;;;9.67;5.00;;;;;9.90;67.27;100655.69;5100587;27;45386;-49
2022/11/19 02:15:05;;;;;;;;;9.33;5.00;;;;;9.93;67.22;100664.22;5100957;27;45326;-51
2022/11/19 02:17:46;;;;;;;;;11.67;6.00;;;;;9.92;67.51;100656.41;5100946;27;45444;-48
2022/11/19 02:20:59;;;;;;;;;6.00;5.00;;;;;9.91;67.04;100662.69;5100458;27;46197;-49
2022/11/19 02:23:51;;;;;;;;;3.00;3.00;;;;;9.88;67.72;100661.16;5057468;28;45264;-49
2022/11/19 02:26:16;;;;;;;;;9.00;4.33;;;;;9.88;66.91;100658.50;5057676;28;45498;-46
2022/11/19 02:29:15;;;;;;;;;6.00;5.00;;;;;9.85;67.15;100653.47;5057946;28;45404;-51
2022/11/19 02:31:56;;;;;;;;;4.33;3.00;;;;;9.79;67.53;100653.22;5057460;28;46225;-52
2022/11/19 02:34:30;;;;;;;;;5.00;5.00;;;;;9.81;67.72;100664.53;5057321;28;45578;-51
2022/11/19 02:37:05;;;;;;;;;5.00;5.00;;;;;9.80;67.46;100666.34;5058107;28;45396;-51
2022/11/19 02:39:47;;;;;;;;;7.00;5.00;;;;;9.78;67.62;100659.53;5058593;28;45601;-50
2022/11/19 02:42:33;;;;;;;;;6.00;5.33;;;;;9.78;67.87;100659.53;5057663;28;46249;-49
2022/11/19 02:45:13;;;;;;;;;4.33;3.00;;;;;9.74;67.76;100659.81;5057127;28;45468;-50
2022/11/19 02:47:48;;;;;;;;;8.00;3.00;;;;;9.72;68.00;100647.63;5057295;28;45490;-48
2022/11/19 02:50:30;;;;;;;;;5.33;2.00;;;;;9.72;67.66;100652.94;5040693;28;45522;-49
2022/11/19 02:52:57;;;;;;;;;7.00;5.00;;;;;9.70;67.84;100655.75;5056878;28;47084;-50
2022/11/19 02:55:23;;;;;;;;;5.33;2.33;;;;;9.69;68.02;100655.88;5056997;28;45280;-50
2022/11/19 02:57:56;;;;;;;;;3.00;3.00;;;;;9.67;68.46;100661.34;5057042;28;45404;-51
2022/11/19 03:06:11;;;;;;;;;3.00;3.00;;;;;9.57;68.44;100644.59;5099907;27;45445;-50
2022/11/19 03:08:37;;;;;;;;;5.00;2.67;;;;;9.70;68.26;100660.22;5100096;27;45253;-50
2022/11/19 03:11:25;;;;;;;;;3.00;3.00;;;;;9.39;68.42;100609.13;5100088;27;45298;-52
2022/11/19 03:17:28;;;;;;;;;2.00;2.00;;;;;9.71;68.52;100667.22;5099233;27;46129;-51
2022/11/19 03:20:14;;;;;;;;;3.00;2.67;;;;;9.72;68.64;100668.88;5100045;27;45421;-50
2022/11/19 03:23:07;;;;;;;;;3.00;3.00;;;;;9.73;68.52;100674.06;5099897;27;45448;-51
2022/11/19 03:25:55;;;;;;;;;4.00;2.00;;;;;9.73;68.30;100665.22;5099594;27;46601;-50
2022/11/19 03:28:25;;;;;;;;;4.67;2.00;;;;;9.71;68.30;100662.75;5099523;27;45382;-50
2022/11/19 03:30:53;;;;;;;;;3.00;3.00;;;;;9.70;68.32;100655.75;5099556;27;45325;-51
2022/11/19 03:33:25;;;;;;;;;3.00;3.00;;;;;9.60;68.79;100646.94;5099959;27;45255;-50
2022/11/19 03:35:59;;;;;;;;;3.00;3.00;;;;;9.75;68.86;100672.09;5099457;27;46185;-48
2022/11/19 03:38:31;;;;;;;;;5.33;3.00;;;;;9.79;68.66;100677.13;5099414;27;45272;-50
2022/11/19 03:40:57;;;;;;;;;5.67;3.00;;;;;9.76;68.55;100678.25;5099555;27;45259;-52
2022/11/19 03:43:28;;;;;;;;;3.00;3.00;;;;;9.75;68.52;100673.91;5099589;27;45563;-50
2022/11/19 03:45:56;;;;;;;;;3.00;2.00;;;;;9.68;68.56;100665.66;5097573;27;47056;-51
2022/11/19 03:48:24;;;;;;;;;5.67;3.00;;;;;9.65;68.79;100668.63;5099183;27;45296;-52
2022/11/19 03:51:03;;;;;;;;;4.33;4.33;;;;;9.79;68.81;100683.28;5099170;27;45331;-52
2022/11/19 03:53:31;;;;;;;;;5.67;3.00;;;;;9.79;68.65;100682.44;5099552;27;45314;-51
2022/11/19 03:56:05;;;;;;;;;5.00;3.00;;;;;9.72;68.81;100668.88;5098987;27;45951;-52
2022/11/19 03:58:37;;;;;;;;;5.33;3.00;;;;;9.79;69.02;100677.13;5099038;27;45276;-51
2022/11/19 04:01:03;;;;;;;;;5.00;5.00;;;;;9.80;68.32;100682.28;5099213;27;45508;-49
2022/11/19 04:03:28;;;;;;;;;3.00;3.00;;;;;9.81;68.74;100685.78;5099300;27;45302;-51
2022/11/19 04:05:53;;;;;;;;;5.00;5.00;;;;;9.70;68.44;100660.22;5099109;27;45355;-51
2022/11/19 04:08:19;;;;;;;;;1.33;1.33;;;;;9.83;68.40;100686.50;5098704;27;49122;-48
2022/11/19 04:10:44;;;;;;;;;4.33;3.67;;;;;9.84;68.53;100685.50;5099038;27;45391;-50
2022/11/19 04:13:09;;;;;;;;;5.67;2.00;;;;;9.84;68.93;100688.16;5099101;27;45306;-52
2022/11/19 04:15:35;;;;;;;;;5.00;5.00;;;;;9.78;68.71;100681.59;5098741;27;46894;-50
2022/11/19 04:18:00;;;;;;;;;8.00;6.33;;;;;9.86;68.76;100683.53;5098930;27;45357;-51
2022/11/19 04:20:25;;;;;;;;;2.67;2.67;;;;;9.85;68.45;100689.81;5098884;27;45325;-49
2022/11/19 04:22:51;;;;;;;;;2.00;2.00;;;;;9.88;68.93;100689.56;5098888;27;45326;-48
2022/11/19 04:25:16;;;;;;;;;4.33;2.00;;;;;9.88;68.95;100692.22;5098746;27;45782;-48
2022/11/19 04:27:45;;;;;;;;;3.67;2.00;;;;;9.88;68.88;100690.38;5098636;27;45357;-49
2022/11/19 04:30:11;;;;;;;;;4.33;4.33;;;;;9.90;68.88;100700.84;5097822;27;45251;-49
2022/11/19 04:32:36;;;;;;;;;5.00;4.33;;;;;9.87;68.76;100696.69;5098824;27;45313;-51
2022/11/19 04:35:02;;;;;;;;;4.00;2.00;;;;;9.87;68.91;100709.97;5098333;27;46229;-49
2022/11/19 04:37:27;;;;;;;;;3.67;3.00;;;;;9.87;68.43;100706.47;5098655;27;45312;-48
2022/11/19 04:39:52;;;;;;;;;3.67;2.33;;;;;9.88;68.75;100708.97;5098696;27;45454;-49
2022/11/19 04:42:18;;;;;;;;;5.67;5.00;;;;;9.88;68.56;100710.81;5098723;27;45339;-48
2022/11/19 04:44:43;;;;;;;;;3.00;2.67;;;;;9.86;68.39;100710.09;5098247;27;46299;-49
2022/11/19 04:47:08;;;;;;;;;2.00;2.00;;;;;9.86;68.46;100718.06;5098193;27;45341;-48
2022/11/19 04:49:34;;;;;;;;;3.67;3.67;;;;;9.82;68.69;100711.34;5098676;27;45397;-51
2022/11/19 04:51:59;;;;;;;;;4.33;4.33;;;;;9.86;69.08;100724.25;5098691;27;45273;-48
2022/11/19 04:54:24;;;;;;;;;3.67;3.00;;;;;9.85;68.92;100719.06;5098423;27;46786;-52
2022/11/19 04:56:50;;;;;;;;;5.00;3.67;;;;;9.86;68.76;100718.06;5098237;27;45291;-51
2022/11/19 04:59:15;;;;;;;;;5.67;3.00;;;;;9.89;68.58;100723.94;5096966;27;45474;-51
2022/11/19 05:01:40;;;;;;;;;5.33;3.00;;;;;9.90;68.62;100730.09;5098758;27;45324;-49
2022/11/19 05:04:05;;;;;;;;;3.00;3.00;;;;;9.89;68.53;100720.44;5098158;27;46302;-47
2022/11/19 05:06:32;;;;;;;;;5.00;4.33;;;;;9.88;68.73;100724.94;5098078;27;45278;-50
2022/11/19 05:08:57;;;;;;;;;5.00;2.67;;;;;9.90;68.78;100733.59;5098245;27;45333;-50
2022/11/19 05:11:23;;;;;;;;;6.67;6.00;;;;;9.90;69.17;100724.78;5098455;27;45359;-51
2022/11/19 05:13:48;;;;;;;;;5.67;3.00;;;;;9.95;69.01;100725.22;5097809;27;46588;-52
2022/11/19 05:16:13;;;;;;;;;5.00;4.33;;;;;9.95;68.51;100725.22;5098088;27;45427;-48
2022/11/19 05:18:39;;;;;;;;;6.33;2.67;;;;;9.95;69.19;100728.69;5096641;27;45246;-49
2022/11/19 05:21:04;;;;;;;;;6.33;5.00;;;;;9.97;69.02;100736.50;5098055;27;45293;-51
2022/11/19 05:23:29;;;;;;;;;7.67;4.33;;;;;9.99;68.61;100734.56;5097624;27;45404;-51
2022/11/19 05:25:55;;;;;;;;;5.00;3.67;;;;;10.00;68.84;100730.91;5096648;27;45395;-52
2022/11/19 05:28:20;;;;;;;;;8.33;6.00;;;;;10.00;68.87;100730.91;5097913;27;45370;-52
2022/11/19 05:30:45;;;;;;;;;5.33;4.67;;;;;9.99;68.63;100727.44;5098146;27;45213;-50
2022/11/19 05:33:11;;;;;;;;;5.00;5.00;;;;;10.02;68.67;100730.78;5097651;27;46024;-51
2022/11/19 05:35:36;;;;;;;;;7.67;5.00;;;;;10.02;69.06;100744.06;5097702;27;45253;-52
2022/11/19 05:38:02;;;;;;;;;5.00;2.00;;;;;9.99;68.77;100735.41;5097864;27;45264;-50
2022/11/19 05:40:27;;;;;;;;;6.33;5.00;;;;;9.98;69.08;100748.81;5097631;27;45429;-53
2022/11/19 05:42:52;;;;;;;;;6.67;5.00;;;;;9.86;69.18;100716.28;5097614;27;46194;-49
2022/11/19 05:45:18;;;;;;;;;6.00;3.00;;;;;9.95;68.72;100738.50;5097150;27;45464;-50
2022/11/19 05:47:43;;;;;;;;;4.33;4.33;;;;;9.89;69.23;100729.25;5097848;27;45429;-49
2022/11/19 05:50:09;;;;;;;;;8.67;6.67;;;;;9.90;69.35;100735.41;5097834;27;45428;-50
2022/11/19 05:52:34;;;;;;;;;5.33;2.33;;;;;9.80;69.36;100716.00;5097413;27;46293;-51
2022/11/19 05:55:00;;;;;;;;;6.33;4.33;;;;;9.87;69.11;100736.53;5097381;27;45286;-52
2022/11/19 05:57:25;;;;;;;;;13.00;5.00;;;;;9.82;69.04;100727.28;5097412;27;45492;-49
2022/11/19 05:59:51;;;;;;;;;7.33;5.33;;;;;9.86;69.32;100736.66;5097675;27;45503;-51
2022/11/19 06:02:16;;;;;;;;;8.00;6.00;;;;;9.83;69.22;100731.66;5097422;27;45326;-48
2022/11/19 06:04:42;;;;;;;;;3.67;3.67;;;;;9.83;69.61;100742.28;5097540;27;45306;-49
2022/11/19 06:07:07;;;;;;;;;5.00;5.00;;;;;9.74;69.31;100725.38;5097990;27;45325;-51
2022/11/19 06:09:32;;;;;;;;;6.00;3.67;;;;;9.70;69.63;100724.81;5097976;27;45234;-50
2022/11/19 06:11:58;;;;;;;;;5.00;3.00;;;;;9.78;69.63;100734.75;5097346;27;45281;-48
2022/11/19 06:14:25;;;;;;;;;5.00;5.00;;;;;9.78;69.45;100725.94;5097051;27;46069;-47
2022/11/19 06:16:56;;;;;;;;;7.00;5.67;;;;;9.78;69.80;100732.09;5097302;27;45342;-51
2022/11/19 06:19:22;;;;;;;;;4.33;4.33;;;;;9.79;69.43;100739.06;5095913;27;45499;-50
2022/11/19 06:21:49;;;;;;;;;5.00;5.00;;;;;9.80;69.69;100740.75;5095623;27;46601;-49
2022/11/19 06:24:14;;;;;;;;;6.33;6.00;;;;;9.80;69.95;100747.88;5096945;27;45488;-47
2022/11/19 06:26:40;;;;;;;;;5.00;5.00;;;;;9.75;69.91;100735.03;5097047;27;45293;-51
2022/11/19 06:29:06;;;;;;;;;8.33;6.00;;;;;9.81;69.80;100747.72;5097051;27;45441;-48
2022/11/19 06:31:32;;;;;;;;;6.00;4.33;;;;;9.81;70.03;100745.06;5096933;27;46418;-48
2022/11/19 06:33:57;;;;;;;;;6.00;5.00;;;;;9.70;70.06;100730.13;5096860;27;45511;-51
2022/11/19 06:36:23;;;;;;;;;10.00;7.67;;;;;9.80;70.18;100753.19;5097086;27;45348;-49
2022/11/19 06:38:49;;;;;;;;;6.33;5.00;;;;;9.79;69.85;100755.00;5097313;27;45416;-48
2022/11/19 06:41:15;;;;;;;;;5.67;5.33;;;;;9.80;70.15;100755.84;5096527;27;46064;-47
2022/11/19 06:43:42;;;;;;;;;9.00;5.33;;;;;9.83;70.32;100758.22;5096706;27;45340;-48
2022/11/19 06:46:08;;;;;;;;;4.33;4.33;;;;;9.81;70.06;100758.34;5096606;27;45366;-49
2022/11/19 06:48:33;;;;;;;;;4.67;3.67;;;;;9.87;70.56;100763.13;5096813;27;45599;-48
2022/11/19 06:51:00;;;;;;;;;6.67;6.67;;;;;9.89;69.94;100766.44;5096590;27;46532;-49
2022/11/19 06:53:25;;;;;;;;;8.00;6.67;;;;;9.91;69.98;100775.13;5098642;27;45234;-51
2022/11/19 06:55:58;;;;;;;;;8.00;5.67;;;;;9.92;69.99;100778.63;5100295;27;45620;-48
2022/11/19 06:58:23;;;;;;;;;7.00;6.00;;;;;9.95;70.06;100786.31;5100344;27;45442;-48
2022/11/19 07:00:49;;;;;;;;;2.67;2.67;;;;;9.97;70.13;100787.00;5099815;27;46221;-49
2022/11/19 07:03:14;;;;;;;;;7.00;5.33;;;;;9.98;69.91;100783.34;5100049;27;45371;-50
2022/11/19 07:05:40;;;;;;;;;6.33;5.00;;;;;9.98;69.88;100786.00;5100235;27;45418;-50
2022/11/19 07:08:05;;;;;;;;;5.67;5.67;;;;;10.00;69.60;100784.91;5100262;27;45545;-47
2022/11/19 07:10:32;;;;;;;;;3.00;3.00;;;;;9.99;69.74;100787.72;5099874;27;46292;-48
2022/11/19 07:12:58;;;;;;;;;8.33;6.00;;;;;9.99;69.73;100796.53;5098448;27;45800;-49
2022/11/19 07:15:23;;;;;;;;;9.67;6.67;;;;;10.01;69.85;100793.72;5099811;27;45371;-50
2022/11/19 07:17:48;;;;;;;;;6.67;6.00;;;;;9.99;69.61;100799.19;5100096;27;45450;-50
2022/11/19 07:20:14;;;;;;;;;5.00;5.00;;;;;10.02;69.85;100803.34;5099606;27;46589;-46
2022/11/19 07:22:40;;;;;;;;;5.33;3.00;;;;;10.00;69.58;100802.69;5099952;27;45445;-51
2022/11/19 07:25:06;;;;;;;;;7.33;6.00;;;;;9.99;69.79;100807.16;5099885;27;45321;-49
2022/11/19 07:27:32;;;;;;;;;9.33;6.33;;;;;9.99;69.76;100809.81;5099788;27;45321;-46
2022/11/19 07:29:57;;;;;;;;;5.00;5.00;;;;;10.00;70.01;100821.28;5099479;27;46061;-47
2022/11/19 07:32:22;;;;;;;;;3.00;3.00;;;;;10.00;70.25;100808.00;5099490;27;45449;-51
2022/11/19 07:34:48;;;;;;;;;6.33;5.67;;;;;10.03;70.15;100821.00;5099853;27;45368;-47
2022/11/19 07:37:13;;;;;;;;;10.00;6.00;;;;;10.05;70.09;100815.53;5099635;27;45323;-47
2022/11/19 07:39:38;;;;;;;;;8.33;6.00;;;;;10.04;70.04;100821.84;5099472;27;46092;-47
2022/11/19 07:44:47;;;;;;;;;10.00;5.67;;;;;10.04;70.31;100830.66;5099221;27;45504;-47
2022/11/19 07:47:12;;;;;;;;;11.67;7.00;;;;;10.02;69.90;100837.91;5099224;27;45475;-51
2022/11/19 07:49:38;;;;;;;;;5.67;5.67;;;;;10.03;70.30;100833.44;5099085;27;46243;-49
2022/11/19 07:52:03;;;;;;;;;7.00;7.00;;;;;10.06;70.03;100836.66;5099378;27;45308;-51
2022/11/19 07:54:29;;;;;;;;;9.00;6.00;;;;;10.05;70.44;100829.66;5099386;27;45379;-50
2022/11/19 07:56:54;;;;;;;;;5.00;5.00;;;;;10.06;69.65;100839.31;5099598;27;45353;-49
2022/11/19 07:59:19;;;;;;;;;13.33;8.33;;;;;10.05;69.89;100850.94;5098980;27;46938;-48
2022/11/19 08:01:44;;;;;;;;;9.00;6.00;;;;;10.05;69.66;100850.94;5099178;27;45500;-52
2022/11/19 08:04:10;;;;;;;;;7.00;5.67;;;;;10.05;69.99;100844.78;5099130;27;45325;-52
2022/11/19 08:06:35;;;;;;;;;9.33;6.33;;;;;10.02;69.64;100845.03;5099319;27;45510;-49
2022/11/19 08:09:03;;;;;;;;;6.67;6.67;;;;;10.08;69.96;100849.81;5098987;27;45829;-49
2022/11/19 08:11:28;;;;;;;;;10.33;7.00;;;;;10.07;69.86;100864.94;5098776;27;45306;-51
2022/11/19 08:13:54;;;;;;;;;8.33;6.00;;;;;10.08;70.11;100874.56;5098978;27;45361;-47
2022/11/19 08:19:09;;;;;;;;;11.00;5.67;;;;;10.11;70.02;100876.97;5098824;27;45893;-47
2022/11/19 08:21:35;;;;;;;;;12.00;9.67;;;;;10.10;69.42;100875.25;5098812;27;45181;-49
2022/11/19 08:24:02;;;;;;;;;7.33;5.00;;;;;10.09;69.87;100878.06;5098714;27;45488;-50
2022/11/19 08:26:27;;;;;;;;;8.00;5.00;;;;;10.12;69.68;100885.78;5098839;27;45373;-48
2022/11/19 08:28:53;;;;;;;;;9.33;7.00;;;;;10.14;69.83;100887.28;5097221;27;47182;-49
2022/11/19 08:31:18;;;;;;;;;6.33;6.00;;;;;10.13;69.39;100885.63;5098443;27;45374;-48
2022/11/19 08:33:43;;;;;;;;;6.33;6.33;;;;;10.17;69.92;100892.34;5097232;27;45358;-48
2022/11/19 08:36:09;;;;;;;;;6.00;6.00;;;;;10.23;69.48;100889.09;5098188;27;45392;-50
2022/11/19 08:38:34;;;;;;;;;14.00;9.00;;;;;10.26;69.74;100903.97;5098519;27;47285;-47
2022/11/19 08:43:43;;;;;;;;;9.33;7.00;;;;;10.36;69.60;100902.13;5094703;27;45377;-50
2022/11/19 08:46:09;;;;;;;;;7.00;5.33;;;;;10.40;69.16;100897.38;5077453;27;45473;-49
2022/11/19 08:48:34;;;;;;;;;10.67;7.00;;;;;10.45;69.17;100906.63;5077946;27;45343;-49
2022/11/19 08:51:04;;;;;;;;;9.33;6.00;;;;;10.47;69.33;100906.47;5077564;27;45507;-51
2022/11/19 08:53:29;;;;;;;;;7.00;7.00;;;;;10.54;68.96;100909.41;5077797;27;45256;-46
2022/11/19 08:55:55;;;;;;;;;9.33;7.67;;;;;10.57;68.78;100909.94;5077936;27;45267;-49
2022/11/19 08:58:20;;;;;;;;;8.00;6.00;;;;;10.62;68.99;100901.53;5077432;27;46906;-50
2022/11/19 09:00:46;;;;;;;;;6.00;6.00;;;;;10.67;68.57;100912.63;5077552;27;45321;-48
2022/11/19 09:03:11;;;;;;;;;10.67;8.00;;;;;10.70;68.24;100921.16;5077564;27;45398;-52
2022/11/19 09:05:36;;;;;;;;;8.67;6.00;;;;;10.71;68.25;100920.16;5077449;27;45632;-48
2022/11/19 09:08:02;;;;;;;;;7.00;6.33;;;;;10.72;67.88;100921.00;5076796;27;45485;-46
2022/11/19 09:10:27;;;;;;;;;7.00;7.00;;;;;10.70;67.98;100926.47;5077611;27;45243;-46
2022/11/19 09:12:53;;;;;;;;;8.00;6.00;;;;;10.73;68.05;100918.19;5077965;27;45358;-51
2022/11/19 09:15:19;;;;;;;;;5.33;5.00;;;;;10.76;68.13;100921.56;5077209;27;45552;-48
2022/11/19 09:17:44;;;;;;;;;9.33;6.00;;;;;10.73;68.00;100926.16;5077488;28;46105;-51
2022/11/19 09:20:10;;;;;;;;;15.00;6.33;;;;;10.74;68.10;100913.69;5077748;27;45762;-50
2022/11/19 09:22:36;;;;;;;;;10.67;7.00;;;;;10.79;68.09;100921.25;5077828;27;45346;-51
2022/11/19 09:25:01;;;;;;;;;7.00;7.00;;;;;10.79;68.09;100919.44;5078130;27;45342;-47
2022/11/19 09:27:27;;;;;;;;;5.00;5.00;;;;;10.82;68.09;100921.81;5077549;27;46338;-52
2022/11/19 09:29:52;;;;;;;;;6.33;5.00;;;;;10.82;67.92;100921.81;5077312;27;45327;-50
2022/11/19 09:32:17;;;;;;;;;10.33;6.00;;;;;10.82;67.82;100921.81;5077786;27;45536;-50
2022/11/19 09:34:43;;;;;;;;;9.67;6.00;;;;;10.83;67.88;100926.16;5078355;27;45397;-50
2022/11/19 09:37:09;;;;;;;;;8.33;6.33;;;;;10.81;68.03;100921.97;5077707;27;46073;-52
2022/11/19 09:39:35;;;;;;;;;8.67;6.67;;;;;10.84;67.89;100922.50;5077637;27;45263;-51
2022/11/19 09:42:15;;;;;;;;;6.00;5.00;;;;;10.86;67.72;100931.19;5077439;27;45425;-50
2022/11/19 09:45:05;;;;;;;;;6.67;5.00;;;;;10.85;67.83;100926.00;5077015;27;45506;-48
2022/11/19 09:47:48;;;;;;;;;12.00;6.00;;;;;10.93;68.04;100934.94;5097290;27;46264;-52
2022/11/19 09:50:27;;;;;;;;;4.67;4.67;;;;;10.98;67.81;100939.84;5097114;27;45463;-51
2022/11/19 09:53:06;;;;;;;;;14.67;7.67;;;;;10.99;67.65;100937.03;5097322;27;45298;-51
2022/11/19 09:55:35;;;;;;;;;13.33;8.00;;;;;11.02;67.36;100941.22;5097557;27;45308;-52
2022/11/19 09:58:03;;;;;;;;;7.33;6.33;;;;;11.07;67.45;100933.63;5096856;27;46081;-51
2022/11/19 10:00:30;;;;;;;;;10.00;8.00;;;;;11.09;67.51;100937.00;5096617;27;45403;-51
2022/11/19 10:02:57;;;;;;;;;3.00;2.00;;;;;11.12;67.11;100936.69;5096632;27;45395;-49
2022/11/19 10:05:36;;;;;;;;;9.33;5.33;;;;;11.16;67.14;100935.44;5097015;27;45459;-51
2022/11/19 10:08:11;;;;;;;;;6.67;6.33;;;;;11.19;67.06;100937.81;5096860;27;46021;-50
2022/11/19 10:10:45;;;;;;;;;7.00;6.00;;;;;11.22;67.01;100942.84;5096862;27;45393;-52
2022/11/19 10:13:11;;;;;;;;;6.67;6.00;;;;;11.30;66.99;100950.13;5097097;27;45377;-49
2022/11/19 10:15:41;;;;;;;;;5.00;5.00;;;;;11.37;67.24;100940.53;5096891;27;45226;-50
2022/11/19 10:18:20;;;;;;;;;6.67;6.33;;;;;11.46;66.92;100945.00;5096820;27;45851;-51
2022/11/19 10:21:00;;;;;;;;;8.67;7.00;;;;;11.56;66.25;100941.44;5096549;27;45446;-51
2022/11/19 10:23:49;;;;;;;;;8.67;8.00;;;;;11.62;66.38;100944.34;5096792;27;45507;-49
2022/11/19 10:26:17;;;;;;;;;6.00;4.00;;;;;11.66;66.07;100937.72;5096905;27;45407;-49
2022/11/19 10:28:56;;;;;;;;;6.67;6.00;;;;;11.71;66.25;100934.59;5098735;27;46497;-49
2022/11/19 10:31:37;;;;;;;;;12.00;7.00;;;;;11.74;65.79;100931.66;5099939;27;45376;-49
2022/11/19 10:34:27;;;;;;;;;6.33;6.00;;;;;11.77;65.39;100930.53;5098884;27;45265;-48
2022/11/19 10:36:59;;;;;;;;;10.33;8.00;;;;;11.78;65.68;100929.53;5100423;27;45414;-47
2022/11/19 10:39:45;;;;;;;;;6.00;6.00;;;;;11.84;65.31;100931.63;5099840;27;46511;-51
2022/11/19 10:42:31;;;;;;;;;10.00;6.33;;;;;11.88;65.57;100922.31;5099298;27;45405;-50
2022/11/19 10:45:15;;;;;;;;;7.00;7.00;;;;;11.97;64.93;100929.44;5099722;27;45375;-48
2022/11/19 10:48:07;;;;;;;;;10.00;6.00;;;;;12.07;65.27;100927.53;5100406;27;45337;-50
2022/11/19 10:50:32;;;;;;;;;9.00;6.67;;;;;12.17;64.69;100936.28;5099473;27;46125;-50
2022/11/19 10:53:06;;;;;;;;;6.67;6.33;;;;;12.21;64.52;100931.50;5100050;27;45315;-48
2022/11/19 10:55:34;;;;;;;;;7.00;6.67;;;;;12.25;64.33;100930.19;5100411;27;45350;-51
2022/11/19 10:58:15;;;;;;;;;11.00;9.00;;;;;12.31;64.39;100929.59;5100582;27;45365;-48
2022/11/19 11:00:41;;;;;;;;;5.33;5.33;;;;;12.37;64.03;100930.81;5098408;27;46940;-49
2022/11/19 11:03:20;;;;;;;;;11.33;8.33;;;;;12.43;63.68;100927.50;5099936;27;45242;-48
2022/11/19 11:06:02;;;;;;;;;9.00;7.67;;;;;12.47;63.55;100920.88;5099792;27;45543;-49
2022/11/19 11:08:27;;;;;;;;;13.00;6.00;;;;;12.53;63.25;100924.78;5098869;27;45481;-48
2022/11/19 11:10:53;;;;;;;;;7.67;6.33;;;;;12.55;62.89;100920.09;5099737;27;46145;-49
2022/11/19 11:16:24;;;;;;;;;8.33;8.00;;;;;12.73;63.18;100921.75;5099751;27;45473;-47
2022/11/19 11:18:53;;;;;;;;;9.00;7.33;;;;;12.82;62.85;100925.31;5100189;27;45437;-49
2022/11/19 11:21:37;;;;;;;;;10.00;9.33;;;;;12.90;62.78;100932.53;5099673;27;46217;-51
2022/11/19 11:24:03;;;;;;;;;8.33;6.00;;;;;12.95;62.42;100919.56;5098104;27;45416;-51
2022/11/19 11:26:32;;;;;;;;;10.00;6.67;;;;;13.06;62.20;100926.44;5099779;27;45219;-49
2022/11/19 11:29:22;;;;;;;;;7.33;7.00;;;;;13.12;61.81;100915.97;5099512;27;45556;-46
2022/11/19 11:31:48;;;;;;;;;13.67;7.00;;;;;13.20;61.57;100916.03;5099285;27;47117;-49
2022/11/19 11:34:27;;;;;;;;;11.33;9.00;;;;;13.31;61.56;100911.41;5099267;27;45457;-50
2022/11/19 11:36:54;;;;;;;;;7.33;6.00;;;;;13.37;61.53;100914.28;5099634;27;45307;-52
2022/11/19 11:39:26;;;;;;;;;10.00;7.00;;;;;13.41;60.86;100922.84;5099346;27;45405;-49
2022/11/19 11:41:53;;;;;;;;;11.33;8.00;;;;;13.39;60.92;100914.13;5099042;27;45349;-47
2022/11/19 11:44:22;;;;;;;;;7.67;7.67;;;;;13.40;61.37;100915.78;5099017;27;45353;-50
2022/11/19 11:46:57;;;;;;;;;12.00;12.00;;;;;13.40;61.20;100911.31;5099208;27;45454;-50
2022/11/19 11:49:27;;;;;;;;;9.00;8.67;;;;;13.38;61.17;100912.44;5099313;27;45677;-49
2022/11/19 11:52:18;;;;;;;;;10.33;9.00;;;;;13.38;60.87;100915.97;5098807;27;46073;-52
2022/11/19 11:55:01;;;;;;;;;6.33;3.67;;;;;13.35;60.75;100918.94;5035414;28;45326;-50
2022/11/19 11:57:35;;;;;;;;;9.33;9.00;;;;;13.30;60.57;100913.25;5035936;28;45378;-50